sensor_id;sensor_type;location;lat;lon;timestamp;P1;durP1;ratioP1;P2;durP2;ratioP2
36799;SDS011;22752;51.960;5.886;2023-08-12T00:01:49;9.77;;;6.53;;
36799;SDS011;22752;51.960;5.886;2023-08-12T00:04:14;8.75;;;7.03;;
36799;SDS011;22752;51.960;5.886;2023-08-12T00:06:41;7.30;;;5.32;;
36799;SDS011;22752;51.960;5.886;2023-08-12T00:09:07;10.90;;;7.45;;
36799;SDS011;22752;51.960;5.886;2023-08-12T00:11:36;9.80;;;7.43;;
36799;SDS011;22752;51.960;5.886;2023-08-12T00:14:02;7.22;;;6.50;;
36799;SDS011;22752;51.960;5.886;2023-08-12T00:16:28;7.97;;;5.85;;
36799;SDS011;22752;51.960;5.886;2023-08-12T00:18:54;8.65;;;5.78;;
36799;SDS011;22752;51.960;5.886;2023-08-12T00:21:19;9.05;;;7.15;;
36799;SDS011;22752;51.960;5.886;2023-08-12T00:23:45;8.00;;;6.28;;
36799;SDS011;22752;51.960;5.886;2023-08-12T00:26:12;8.23;;;6.35;;
36799;SDS011;22752;51.960;5.886;2023-08-12T00:28:38;9.30;;;5.90;;
36799;SDS011;22752;51.960;5.886;2023-08-12T00:31:04;8.23;;;5.55;;
36799;SDS011;22752;51.960;5.886;2023-08-12T00:33:29;10.25;;;6.65;;
36799;SDS011;22752;51.960;5.886;2023-08-12T00:35:55;8.05;;;6.75;;
36799;SDS011;22752;51.960;5.886;2023-08-12T00:38:20;11.27;;;7.00;;
36799;SDS011;22752;51.960;5.886;2023-08-12T00:40:46;8.23;;;5.80;;
36799;SDS011;22752;51.960;5.886;2023-08-12T00:43:12;7.50;;;5.28;;
36799;SDS011;22752;51.960;5.886;2023-08-12T00:45:38;9.95;;;6.82;;
36799;SDS011;22752;51.960;5.886;2023-08-12T00:48:03;8.75;;;6.63;;
36799;SDS011;22752;51.960;5.886;2023-08-12T00:50:30;9.23;;;6.97;;
36799;SDS011;22752;51.960;5.886;2023-08-12T00:52:57;7.28;;;6.05;;
36799;SDS011;22752;51.960;5.886;2023-08-12T00:55:24;8.98;;;5.70;;
36799;SDS011;22752;51.960;5.886;2023-08-12T00:57:50;9.30;;;6.75;;
36799;SDS011;22752;51.960;5.886;2023-08-12T01:00:16;10.75;;;6.63;;
36799;SDS011;22752;51.960;5.886;2023-08-12T01:02:45;11.07;;;6.63;;
36799;SDS011;22752;51.960;5.886;2023-08-12T01:05:13;9.40;;;6.65;;
36799;SDS011;22752;51.960;5.886;2023-08-12T01:07:40;7.63;;;5.43;;
36799;SDS011;22752;51.960;5.886;2023-08-12T01:10:07;11.77;;;6.20;;
36799;SDS011;22752;51.960;5.886;2023-08-12T01:12:59;8.75;;;6.57;;
36799;SDS011;22752;51.960;5.886;2023-08-12T01:15:28;10.32;;;7.10;;
36799;SDS011;22752;51.960;5.886;2023-08-12T01:17:54;7.57;;;5.97;;
36799;SDS011;22752;51.960;5.886;2023-08-12T01:20:21;9.43;;;6.30;;
36799;SDS011;22752;51.960;5.886;2023-08-12T01:22:52;14.32;;;7.07;;
36799;SDS011;22752;51.960;5.886;2023-08-12T01:25:24;8.65;;;6.97;;
36799;SDS011;22752;51.960;5.886;2023-08-12T01:27:50;10.07;;;5.53;;
36799;SDS011;22752;51.960;5.886;2023-08-12T01:30:15;9.93;;;5.60;;
36799;SDS011;22752;51.960;5.886;2023-08-12T01:32:52;7.90;;;5.18;;
36799;SDS011;22752;51.960;5.886;2023-08-12T01:35:36;8.32;;;6.70;;
36799;SDS011;22752;51.960;5.886;2023-08-12T01:38:10;11.85;;;5.85;;
36799;SDS011;22752;51.960;5.886;2023-08-12T01:40:36;9.07;;;7.05;;
36799;SDS011;22752;51.960;5.886;2023-08-12T01:43:05;7.82;;;5.93;;
36799;SDS011;22752;51.960;5.886;2023-08-12T01:45:32;11.38;;;7.60;;
36799;SDS011;22752;51.960;5.886;2023-08-12T01:47:58;12.65;;;8.77;;
36799;SDS011;22752;51.960;5.886;2023-08-12T01:50:23;8.43;;;6.38;;
36799;SDS011;22752;51.960;5.886;2023-08-12T01:52:50;8.10;;;7.00;;
36799;SDS011;22752;51.960;5.886;2023-08-12T01:55:16;6.68;;;5.50;;
36799;SDS011;22752;51.960;5.886;2023-08-12T01:57:41;9.90;;;6.85;;
36799;SDS011;22752;51.960;5.886;2023-08-12T02:00:07;8.75;;;6.93;;
36799;SDS011;22752;51.960;5.886;2023-08-12T02:02:33;11.95;;;7.78;;
36799;SDS011;22752;51.960;5.886;2023-08-12T02:04:59;13.20;;;9.27;;
36799;SDS011;22752;51.960;5.886;2023-08-12T02:07:24;11.02;;;8.85;;
36799;SDS011;22752;51.960;5.886;2023-08-12T02:09:50;9.52;;;8.02;;
36799;SDS011;22752;51.960;5.886;2023-08-12T02:12:16;14.10;;;8.02;;
36799;SDS011;22752;51.960;5.886;2023-08-12T02:14:41;13.00;;;7.88;;
36799;SDS011;22752;51.960;5.886;2023-08-12T02:17:07;10.25;;;8.20;;
36799;SDS011;22752;51.960;5.886;2023-08-12T02:19:33;9.85;;;6.40;;
36799;SDS011;22752;51.960;5.886;2023-08-12T02:21:59;8.93;;;6.43;;
36799;SDS011;22752;51.960;5.886;2023-08-12T02:24:26;12.07;;;8.32;;
36799;SDS011;22752;51.960;5.886;2023-08-12T02:26:52;8.63;;;6.80;;
36799;SDS011;22752;51.960;5.886;2023-08-12T02:29:18;12.50;;;9.63;;
36799;SDS011;22752;51.960;5.886;2023-08-12T02:31:43;9.90;;;8.00;;
36799;SDS011;22752;51.960;5.886;2023-08-12T02:34:09;11.65;;;8.00;;
36799;SDS011;22752;51.960;5.886;2023-08-12T02:36:35;12.45;;;10.05;;
36799;SDS011;22752;51.960;5.886;2023-08-12T02:39:01;10.82;;;7.60;;
36799;SDS011;22752;51.960;5.886;2023-08-12T02:41:26;12.80;;;9.50;;
36799;SDS011;22752;51.960;5.886;2023-08-12T02:43:52;17.55;;;8.80;;
36799;SDS011;22752;51.960;5.886;2023-08-12T02:46:18;14.48;;;11.00;;
36799;SDS011;22752;51.960;5.886;2023-08-12T02:48:44;14.48;;;10.38;;
36799;SDS011;22752;51.960;5.886;2023-08-12T02:51:12;11.10;;;8.80;;
36799;SDS011;22752;51.960;5.886;2023-08-12T02:53:38;12.98;;;9.00;;
36799;SDS011;22752;51.960;5.886;2023-08-12T02:56:03;13.35;;;10.85;;
36799;SDS011;22752;51.960;5.886;2023-08-12T02:58:29;16.10;;;9.93;;
36799;SDS011;22752;51.960;5.886;2023-08-12T03:00:55;12.77;;;10.48;;
36799;SDS011;22752;51.960;5.886;2023-08-12T03:03:21;15.75;;;12.00;;
36799;SDS011;22752;51.960;5.886;2023-08-12T03:05:47;12.95;;;9.90;;
36799;SDS011;22752;51.960;5.886;2023-08-12T03:08:13;13.07;;;10.35;;
36799;SDS011;22752;51.960;5.886;2023-08-12T03:10:39;12.93;;;10.27;;
36799;SDS011;22752;51.960;5.886;2023-08-12T03:13:05;15.50;;;13.90;;
36799;SDS011;22752;51.960;5.886;2023-08-12T03:15:31;13.93;;;11.15;;
36799;SDS011;22752;51.960;5.886;2023-08-12T03:17:57;16.83;;;12.07;;
36799;SDS011;22752;51.960;5.886;2023-08-12T03:20:23;19.15;;;13.77;;
36799;SDS011;22752;51.960;5.886;2023-08-12T03:22:48;16.13;;;11.43;;
36799;SDS011;22752;51.960;5.886;2023-08-12T03:25:14;23.08;;;13.35;;
36799;SDS011;22752;51.960;5.886;2023-08-12T03:27:40;15.85;;;13.18;;
36799;SDS011;22752;51.960;5.886;2023-08-12T03:30:06;15.30;;;13.32;;
36799;SDS011;22752;51.960;5.886;2023-08-12T03:32:32;19.02;;;13.07;;
36799;SDS011;22752;51.960;5.886;2023-08-12T03:34:58;15.10;;;12.25;;
36799;SDS011;22752;51.960;5.886;2023-08-12T03:37:24;17.25;;;12.23;;
36799;SDS011;22752;51.960;5.886;2023-08-12T03:39:50;14.73;;;12.00;;
36799;SDS011;22752;51.960;5.886;2023-08-12T03:42:16;18.50;;;12.80;;
36799;SDS011;22752;51.960;5.886;2023-08-12T03:44:45;12.75;;;10.40;;
36799;SDS011;22752;51.960;5.886;2023-08-12T03:47:11;15.27;;;11.15;;
36799;SDS011;22752;51.960;5.886;2023-08-12T03:49:37;15.32;;;11.82;;
36799;SDS011;22752;51.960;5.886;2023-08-12T03:52:03;20.02;;;14.07;;
36799;SDS011;22752;51.960;5.886;2023-08-12T03:54:29;14.15;;;10.43;;
36799;SDS011;22752;51.960;5.886;2023-08-12T03:56:55;16.52;;;12.98;;
36799;SDS011;22752;51.960;5.886;2023-08-12T03:59:20;18.33;;;14.00;;
36799;SDS011;22752;51.960;5.886;2023-08-12T04:01:47;19.52;;;11.65;;
36799;SDS011;22752;51.960;5.886;2023-08-12T04:04:12;17.75;;;13.23;;
36799;SDS011;22752;51.960;5.886;2023-08-12T04:06:38;14.05;;;11.52;;
36799;SDS011;22752;51.960;5.886;2023-08-12T04:09:04;18.92;;;13.43;;
36799;SDS011;22752;51.960;5.886;2023-08-12T04:11:30;19.50;;;15.77;;
36799;SDS011;22752;51.960;5.886;2023-08-12T04:13:56;13.23;;;10.55;;
36799;SDS011;22752;51.960;5.886;2023-08-12T04:16:21;18.20;;;14.02;;
36799;SDS011;22752;51.960;5.886;2023-08-12T04:18:47;12.18;;;10.65;;
36799;SDS011;22752;51.960;5.886;2023-08-12T04:21:13;12.65;;;10.65;;
36799;SDS011;22752;51.960;5.886;2023-08-12T04:23:39;15.30;;;11.75;;
36799;SDS011;22752;51.960;5.886;2023-08-12T04:26:04;23.55;;;16.70;;
36799;SDS011;22752;51.960;5.886;2023-08-12T04:28:30;16.63;;;12.38;;
36799;SDS011;22752;51.960;5.886;2023-08-12T04:30:56;17.70;;;12.98;;
36799;SDS011;22752;51.960;5.886;2023-08-12T04:33:22;22.95;;;16.08;;
36799;SDS011;22752;51.960;5.886;2023-08-12T04:35:49;21.20;;;16.58;;
36799;SDS011;22752;51.960;5.886;2023-08-12T04:38:14;18.77;;;14.68;;
36799;SDS011;22752;51.960;5.886;2023-08-12T04:40:41;19.38;;;15.32;;
36799;SDS011;22752;51.960;5.886;2023-08-12T04:43:10;16.92;;;14.00;;
36799;SDS011;22752;51.960;5.886;2023-08-12T04:45:36;17.40;;;14.18;;
36799;SDS011;22752;51.960;5.886;2023-08-12T04:48:03;20.48;;;14.50;;
36799;SDS011;22752;51.960;5.886;2023-08-12T04:50:30;16.73;;;13.85;;
36799;SDS011;22752;51.960;5.886;2023-08-12T04:52:56;23.08;;;16.02;;
36799;SDS011;22752;51.960;5.886;2023-08-12T04:55:22;16.85;;;14.15;;
36799;SDS011;22752;51.960;5.886;2023-08-12T04:57:49;17.35;;;13.57;;
36799;SDS011;22752;51.960;5.886;2023-08-12T05:00:15;19.35;;;14.82;;
36799;SDS011;22752;51.960;5.886;2023-08-12T05:02:42;20.83;;;17.60;;
36799;SDS011;22752;51.960;5.886;2023-08-12T05:05:07;20.05;;;16.85;;
36799;SDS011;22752;51.960;5.886;2023-08-12T05:07:33;21.15;;;17.00;;
36799;SDS011;22752;51.960;5.886;2023-08-12T05:09:59;16.25;;;13.25;;
36799;SDS011;22752;51.960;5.886;2023-08-12T05:12:24;23.98;;;17.23;;
36799;SDS011;22752;51.960;5.886;2023-08-12T05:14:50;20.38;;;17.42;;
36799;SDS011;22752;51.960;5.886;2023-08-12T05:17:16;22.08;;;16.63;;
36799;SDS011;22752;51.960;5.886;2023-08-12T05:19:41;16.25;;;14.52;;
36799;SDS011;22752;51.960;5.886;2023-08-12T05:22:07;18.17;;;14.18;;
36799;SDS011;22752;51.960;5.886;2023-08-12T05:24:33;16.40;;;13.60;;
36799;SDS011;22752;51.960;5.886;2023-08-12T05:26:58;16.90;;;12.45;;
36799;SDS011;22752;51.960;5.886;2023-08-12T05:29:24;20.45;;;13.90;;
36799;SDS011;22752;51.960;5.886;2023-08-12T05:31:50;15.30;;;12.38;;
36799;SDS011;22752;51.960;5.886;2023-08-12T05:34:15;17.98;;;14.90;;
36799;SDS011;22752;51.960;5.886;2023-08-12T05:36:41;19.92;;;14.70;;
36799;SDS011;22752;51.960;5.886;2023-08-12T05:39:06;19.80;;;14.50;;
36799;SDS011;22752;51.960;5.886;2023-08-12T05:41:32;22.50;;;16.40;;
36799;SDS011;22752;51.960;5.886;2023-08-12T05:43:58;21.85;;;15.23;;
36799;SDS011;22752;51.960;5.886;2023-08-12T05:46:23;19.65;;;13.35;;
36799;SDS011;22752;51.960;5.886;2023-08-12T05:48:49;17.77;;;12.75;;
36799;SDS011;22752;51.960;5.886;2023-08-12T05:51:14;18.58;;;13.68;;
36799;SDS011;22752;51.960;5.886;2023-08-12T05:53:40;14.75;;;11.10;;
36799;SDS011;22752;51.960;5.886;2023-08-12T05:56:05;16.77;;;11.73;;
36799;SDS011;22752;51.960;5.886;2023-08-12T05:58:31;18.15;;;11.25;;
36799;SDS011;22752;51.960;5.886;2023-08-12T06:00:57;16.73;;;11.60;;
36799;SDS011;22752;51.960;5.886;2023-08-12T06:03:22;15.00;;;10.15;;
36799;SDS011;22752;51.960;5.886;2023-08-12T06:05:48;18.45;;;11.85;;
36799;SDS011;22752;51.960;5.886;2023-08-12T06:08:14;12.60;;;9.50;;
36799;SDS011;22752;51.960;5.886;2023-08-12T06:10:40;14.50;;;9.50;;
36799;SDS011;22752;51.960;5.886;2023-08-12T06:13:05;16.17;;;11.35;;
36799;SDS011;22752;51.960;5.886;2023-08-12T06:15:31;16.98;;;10.40;;
36799;SDS011;22752;51.960;5.886;2023-08-12T06:17:58;15.10;;;10.00;;
36799;SDS011;22752;51.960;5.886;2023-08-12T06:20:24;15.60;;;9.82;;
36799;SDS011;22752;51.960;5.886;2023-08-12T06:22:50;13.13;;;9.48;;
36799;SDS011;22752;51.960;5.886;2023-08-12T06:25:16;14.85;;;10.02;;
36799;SDS011;22752;51.960;5.886;2023-08-12T06:27:42;13.07;;;8.35;;
36799;SDS011;22752;51.960;5.886;2023-08-12T06:30:08;15.60;;;8.80;;
36799;SDS011;22752;51.960;5.886;2023-08-12T06:32:35;13.25;;;8.25;;
36799;SDS011;22752;51.960;5.886;2023-08-12T06:35:01;9.88;;;7.65;;
36799;SDS011;22752;51.960;5.886;2023-08-12T06:37:26;13.38;;;7.03;;
36799;SDS011;22752;51.960;5.886;2023-08-12T06:39:52;9.70;;;6.68;;
36799;SDS011;22752;51.960;5.886;2023-08-12T06:42:17;8.18;;;5.75;;
36799;SDS011;22752;51.960;5.886;2023-08-12T06:44:44;7.57;;;5.30;;
36799;SDS011;22752;51.960;5.886;2023-08-12T06:47:10;10.52;;;6.35;;
36799;SDS011;22752;51.960;5.886;2023-08-12T06:49:36;8.50;;;5.35;;
36799;SDS011;22752;51.960;5.886;2023-08-12T06:52:01;7.78;;;5.28;;
36799;SDS011;22752;51.960;5.886;2023-08-12T06:54:27;9.30;;;5.65;;
36799;SDS011;22752;51.960;5.886;2023-08-12T06:56:53;9.90;;;6.15;;
36799;SDS011;22752;51.960;5.886;2023-08-12T06:59:18;9.25;;;5.60;;
36799;SDS011;22752;51.960;5.886;2023-08-12T07:01:44;7.30;;;5.43;;
36799;SDS011;22752;51.960;5.886;2023-08-12T07:04:09;9.35;;;5.80;;
36799;SDS011;22752;51.960;5.886;2023-08-12T07:06:35;10.35;;;6.07;;
36799;SDS011;22752;51.960;5.886;2023-08-12T07:09:01;12.00;;;6.68;;
36799;SDS011;22752;51.960;5.886;2023-08-12T07:11:26;10.50;;;6.20;;
36799;SDS011;22752;51.960;5.886;2023-08-12T07:13:52;10.55;;;6.75;;
36799;SDS011;22752;51.960;5.886;2023-08-12T07:16:18;12.00;;;6.47;;
36799;SDS011;22752;51.960;5.886;2023-08-12T07:18:43;11.85;;;6.75;;
36799;SDS011;22752;51.960;5.886;2023-08-12T07:21:09;9.25;;;6.43;;
36799;SDS011;22752;51.960;5.886;2023-08-12T07:23:34;9.48;;;5.90;;
36799;SDS011;22752;51.960;5.886;2023-08-12T07:26:00;9.95;;;6.68;;
36799;SDS011;22752;51.960;5.886;2023-08-12T07:28:26;9.07;;;6.05;;
36799;SDS011;22752;51.960;5.886;2023-08-12T07:30:51;9.73;;;5.93;;
36799;SDS011;22752;51.960;5.886;2023-08-12T07:33:17;7.75;;;5.90;;
36799;SDS011;22752;51.960;5.886;2023-08-12T07:35:43;7.05;;;5.57;;
36799;SDS011;22752;51.960;5.886;2023-08-12T07:38:08;8.43;;;6.38;;
36799;SDS011;22752;51.960;5.886;2023-08-12T07:40:34;9.43;;;6.43;;
36799;SDS011;22752;51.960;5.886;2023-08-12T07:43:00;9.52;;;5.78;;
36799;SDS011;22752;51.960;5.886;2023-08-12T07:45:25;10.15;;;5.55;;
36799;SDS011;22752;51.960;5.886;2023-08-12T07:47:51;9.00;;;5.43;;
36799;SDS011;22752;51.960;5.886;2023-08-12T07:50:17;8.15;;;5.30;;
36799;SDS011;22752;51.960;5.886;2023-08-12T07:52:43;10.05;;;5.25;;
36799;SDS011;22752;51.960;5.886;2023-08-12T07:55:08;7.90;;;5.32;;
36799;SDS011;22752;51.960;5.886;2023-08-12T07:57:34;5.55;;;4.60;;
36799;SDS011;22752;51.960;5.886;2023-08-12T08:00:00;11.88;;;5.10;;
36799;SDS011;22752;51.960;5.886;2023-08-12T08:02:25;9.18;;;5.65;;
36799;SDS011;22752;51.960;5.886;2023-08-12T08:04:51;7.65;;;4.90;;
36799;SDS011;22752;51.960;5.886;2023-08-12T08:07:17;5.60;;;4.78;;
36799;SDS011;22752;51.960;5.886;2023-08-12T08:09:43;7.30;;;4.75;;
36799;SDS011;22752;51.960;5.886;2023-08-12T08:12:09;7.30;;;4.13;;
36799;SDS011;22752;51.960;5.886;2023-08-12T08:14:35;5.82;;;3.80;;
36799;SDS011;22752;51.960;5.886;2023-08-12T08:17:02;4.05;;;3.50;;
36799;SDS011;22752;51.960;5.886;2023-08-12T08:19:28;4.18;;;2.90;;
36799;SDS011;22752;51.960;5.886;2023-08-12T08:21:54;4.13;;;3.22;;
36799;SDS011;22752;51.960;5.886;2023-08-12T08:24:20;5.20;;;3.50;;
36799;SDS011;22752;51.960;5.886;2023-08-12T08:26:46;5.43;;;3.25;;
36799;SDS011;22752;51.960;5.886;2023-08-12T08:29:12;4.25;;;3.10;;
36799;SDS011;22752;51.960;5.886;2023-08-12T08:31:38;3.72;;;2.88;;
36799;SDS011;22752;51.960;5.886;2023-08-12T08:34:04;3.50;;;3.20;;
36799;SDS011;22752;51.960;5.886;2023-08-12T08:36:29;3.47;;;2.85;;
36799;SDS011;22752;51.960;5.886;2023-08-12T08:38:55;2.60;;;2.40;;
36799;SDS011;22752;51.960;5.886;2023-08-12T08:41:21;3.30;;;2.33;;
36799;SDS011;22752;51.960;5.886;2023-08-12T08:43:48;2.50;;;2.30;;
36799;SDS011;22752;51.960;5.886;2023-08-12T08:46:15;3.50;;;2.47;;
36799;SDS011;22752;51.960;5.886;2023-08-12T08:48:42;3.83;;;2.80;;
36799;SDS011;22752;51.960;5.886;2023-08-12T08:51:09;3.80;;;2.30;;
36799;SDS011;22752;51.960;5.886;2023-08-12T08:53:39;3.78;;;2.78;;
36799;SDS011;22752;51.960;5.886;2023-08-12T08:56:06;3.25;;;2.78;;
36799;SDS011;22752;51.960;5.886;2023-08-12T08:58:33;4.05;;;2.38;;
36799;SDS011;22752;51.960;5.886;2023-08-12T09:00:59;3.80;;;2.70;;
36799;SDS011;22752;51.960;5.886;2023-08-12T09:03:26;2.97;;;2.58;;
36799;SDS011;22752;51.960;5.886;2023-08-12T09:05:53;2.55;;;2.35;;
36799;SDS011;22752;51.960;5.886;2023-08-12T09:08:22;2.70;;;2.47;;
36799;SDS011;22752;51.960;5.886;2023-08-12T09:10:49;2.85;;;2.60;;
36799;SDS011;22752;51.960;5.886;2023-08-12T09:13:15;2.65;;;2.45;;
36799;SDS011;22752;51.960;5.886;2023-08-12T09:15:43;2.55;;;2.13;;
36799;SDS011;22752;51.960;5.886;2023-08-12T09:18:09;4.18;;;2.63;;
36799;SDS011;22752;51.960;5.886;2023-08-12T09:20:34;2.15;;;1.95;;
36799;SDS011;22752;51.960;5.886;2023-08-12T09:23:01;2.45;;;2.25;;
36799;SDS011;22752;51.960;5.886;2023-08-12T09:25:27;2.35;;;2.15;;
36799;SDS011;22752;51.960;5.886;2023-08-12T09:27:58;2.58;;;2.38;;
36799;SDS011;22752;51.960;5.886;2023-08-12T09:30:24;3.45;;;2.67;;
36799;SDS011;22752;51.960;5.886;2023-08-12T09:32:59;2.42;;;2.20;;
36799;SDS011;22752;51.960;5.886;2023-08-12T09:38:02;1.63;;;1.30;;
36799;SDS011;22752;51.960;5.886;2023-08-12T09:40:30;1.00;;;1.00;;
36799;SDS011;22752;51.960;5.886;2023-08-12T09:42:57;0.82;;;0.82;;
36799;SDS011;22752;51.960;5.886;2023-08-12T09:45:23;0.95;;;0.95;;
36799;SDS011;22752;51.960;5.886;2023-08-12T09:47:50;2.00;;;0.95;;
36799;SDS011;22752;51.960;5.886;2023-08-12T09:50:16;0.85;;;0.73;;
36799;SDS011;22752;51.960;5.886;2023-08-12T09:52:41;1.23;;;0.75;;
36799;SDS011;22752;51.960;5.886;2023-08-12T09:55:08;3.63;;;0.80;;
36799;SDS011;22752;51.960;5.886;2023-08-12T09:57:36;0.70;;;0.70;;
36799;SDS011;22752;51.960;5.886;2023-08-12T10:00:07;1.50;;;0.68;;
36799;SDS011;22752;51.960;5.886;2023-08-12T10:02:42;1.27;;;0.90;;
36799;SDS011;22752;51.960;5.886;2023-08-12T10:05:12;0.50;;;0.50;;
36799;SDS011;22752;51.960;5.886;2023-08-12T10:07:42;1.73;;;0.60;;
36799;SDS011;22752;51.960;5.886;2023-08-12T10:10:08;0.75;;;0.70;;
36799;SDS011;22752;51.960;5.886;2023-08-12T10:12:35;1.35;;;0.57;;
36799;SDS011;22752;51.960;5.886;2023-08-12T10:15:03;1.38;;;0.80;;
36799;SDS011;22752;51.960;5.886;2023-08-12T10:17:30;0.60;;;0.60;;
36799;SDS011;22752;51.960;5.886;2023-08-12T10:19:56;0.80;;;0.60;;
36799;SDS011;22752;51.960;5.886;2023-08-12T10:22:25;1.13;;;0.80;;
36799;SDS011;22752;51.960;5.886;2023-08-12T10:24:51;0.60;;;0.60;;
36799;SDS011;22752;51.960;5.886;2023-08-12T10:27:18;0.60;;;0.60;;
36799;SDS011;22752;51.960;5.886;2023-08-12T10:29:45;1.83;;;0.90;;
36799;SDS011;22752;51.960;5.886;2023-08-12T10:32:11;2.03;;;1.23;;
36799;SDS011;22752;51.960;5.886;2023-08-12T10:34:39;1.27;;;1.00;;
36799;SDS011;22752;51.960;5.886;2023-08-12T10:37:04;1.85;;;1.30;;
36799;SDS011;22752;51.960;5.886;2023-08-12T10:39:32;1.77;;;1.50;;
36799;SDS011;22752;51.960;5.886;2023-08-12T10:41:58;3.22;;;1.60;;
36799;SDS011;22752;51.960;5.886;2023-08-12T10:44:37;2.38;;;1.77;;
36799;SDS011;22752;51.960;5.886;2023-08-12T10:47:10;2.80;;;1.60;;
36799;SDS011;22752;51.960;5.886;2023-08-12T10:49:39;2.90;;;1.50;;
36799;SDS011;22752;51.960;5.886;2023-08-12T10:54:50;2.22;;;1.77;;
36799;SDS011;22752;51.960;5.886;2023-08-12T10:57:18;1.88;;;1.50;;
36799;SDS011;22752;51.960;5.886;2023-08-12T11:02:28;2.42;;;1.50;;
36799;SDS011;22752;51.960;5.886;2023-08-12T11:05:08;3.20;;;1.67;;
36799;SDS011;22752;51.960;5.886;2023-08-12T11:10:24;5.38;;;1.80;;
36799;SDS011;22752;51.960;5.886;2023-08-12T11:15:16;3.50;;;1.45;;
36799;SDS011;22752;51.960;5.886;2023-08-12T11:18:06;6.78;;;1.60;;
36799;SDS011;22752;51.960;5.886;2023-08-12T11:20:33;3.22;;;1.52;;
36799;SDS011;22752;51.960;5.886;2023-08-12T11:23:00;4.00;;;1.33;;
36799;SDS011;22752;51.960;5.886;2023-08-12T11:25:30;3.70;;;1.42;;
36799;SDS011;22752;51.960;5.886;2023-08-12T11:27:57;2.95;;;1.40;;
36799;SDS011;22752;51.960;5.886;2023-08-12T11:30:23;2.92;;;1.30;;
36799;SDS011;22752;51.960;5.886;2023-08-12T11:32:49;6.30;;;1.60;;
36799;SDS011;22752;51.960;5.886;2023-08-12T11:35:16;5.47;;;1.45;;
36799;SDS011;22752;51.960;5.886;2023-08-12T11:37:44;4.00;;;1.55;;
36799;SDS011;22752;51.960;5.886;2023-08-12T11:40:11;5.78;;;1.75;;
36799;SDS011;22752;51.960;5.886;2023-08-12T11:42:40;5.43;;;2.03;;
36799;SDS011;22752;51.960;5.886;2023-08-12T11:45:07;3.58;;;1.30;;
36799;SDS011;22752;51.960;5.886;2023-08-12T11:47:34;3.70;;;1.80;;
36799;SDS011;22752;51.960;5.886;2023-08-12T11:50:04;4.47;;;1.55;;
36799;SDS011;22752;51.960;5.886;2023-08-12T11:52:31;4.90;;;1.75;;
36799;SDS011;22752;51.960;5.886;2023-08-12T11:54:57;2.50;;;1.20;;
36799;SDS011;22752;51.960;5.886;2023-08-12T11:57:23;3.33;;;1.48;;
36799;SDS011;22752;51.960;5.886;2023-08-12T11:59:51;3.67;;;1.33;;
36799;SDS011;22752;51.960;5.886;2023-08-12T12:02:16;3.30;;;1.55;;
36799;SDS011;22752;51.960;5.886;2023-08-12T12:04:42;3.33;;;1.63;;
36799;SDS011;22752;51.960;5.886;2023-08-12T12:07:18;4.07;;;1.70;;
36799;SDS011;22752;51.960;5.886;2023-08-12T12:09:54;3.90;;;1.30;;
36799;SDS011;22752;51.960;5.886;2023-08-12T12:12:23;2.95;;;1.40;;
36799;SDS011;22752;51.960;5.886;2023-08-12T12:14:52;4.22;;;1.58;;
36799;SDS011;22752;51.960;5.886;2023-08-12T12:17:22;5.35;;;1.95;;
36799;SDS011;22752;51.960;5.886;2023-08-12T12:19:52;5.30;;;1.70;;
36799;SDS011;22752;51.960;5.886;2023-08-12T12:22:28;5.07;;;1.80;;
36799;SDS011;22752;51.960;5.886;2023-08-12T12:24:57;3.85;;;1.58;;
36799;SDS011;22752;51.960;5.886;2023-08-12T12:27:31;4.93;;;1.77;;
36799;SDS011;22752;51.960;5.886;2023-08-12T12:29:58;7.00;;;1.65;;
36799;SDS011;22752;51.960;5.886;2023-08-12T12:32:24;5.45;;;1.83;;
36799;SDS011;22752;51.960;5.886;2023-08-12T12:34:50;5.57;;;1.77;;
36799;SDS011;22752;51.960;5.886;2023-08-12T12:37:16;5.40;;;2.22;;
36799;SDS011;22752;51.960;5.886;2023-08-12T12:39:41;7.05;;;2.20;;
36799;SDS011;22752;51.960;5.886;2023-08-12T12:42:07;6.80;;;1.77;;
36799;SDS011;22752;51.960;5.886;2023-08-12T12:44:33;5.75;;;1.83;;
36799;SDS011;22752;51.960;5.886;2023-08-12T12:46:59;4.20;;;1.75;;
36799;SDS011;22752;51.960;5.886;2023-08-12T12:49:24;3.65;;;1.88;;
36799;SDS011;22752;51.960;5.886;2023-08-12T12:51:51;5.05;;;1.70;;
36799;SDS011;22752;51.960;5.886;2023-08-12T12:54:17;5.90;;;1.70;;
36799;SDS011;22752;51.960;5.886;2023-08-12T12:56:42;8.07;;;2.45;;
36799;SDS011;22752;51.960;5.886;2023-08-12T12:59:08;6.93;;;1.95;;
36799;SDS011;22752;51.960;5.886;2023-08-12T13:01:34;5.75;;;1.60;;
36799;SDS011;22752;51.960;5.886;2023-08-12T13:04:00;4.45;;;1.80;;
36799;SDS011;22752;51.960;5.886;2023-08-12T13:06:25;7.75;;;2.03;;
36799;SDS011;22752;51.960;5.886;2023-08-12T13:08:51;4.38;;;1.80;;
36799;SDS011;22752;51.960;5.886;2023-08-12T13:11:17;12.60;;;2.05;;
36799;SDS011;22752;51.960;5.886;2023-08-12T13:13:43;3.97;;;1.63;;
36799;SDS011;22752;51.960;5.886;2023-08-12T13:16:08;4.75;;;1.48;;
36799;SDS011;22752;51.960;5.886;2023-08-12T13:18:34;7.05;;;2.08;;
36799;SDS011;22752;51.960;5.886;2023-08-12T13:21:00;3.50;;;1.40;;
36799;SDS011;22752;51.960;5.886;2023-08-12T13:23:25;4.38;;;1.63;;
36799;SDS011;22752;51.960;5.886;2023-08-12T13:25:51;4.30;;;1.77;;
36799;SDS011;22752;51.960;5.886;2023-08-12T13:28:17;5.68;;;1.88;;
36799;SDS011;22752;51.960;5.886;2023-08-12T13:30:43;5.90;;;2.00;;
36799;SDS011;22752;51.960;5.886;2023-08-12T13:33:12;6.95;;;1.83;;
36799;SDS011;22752;51.960;5.886;2023-08-12T13:35:37;7.75;;;1.90;;
36799;SDS011;22752;51.960;5.886;2023-08-12T13:38:03;5.68;;;1.67;;
36799;SDS011;22752;51.960;5.886;2023-08-12T13:40:29;6.10;;;2.15;;
36799;SDS011;22752;51.960;5.886;2023-08-12T13:42:55;7.03;;;1.90;;
36799;SDS011;22752;51.960;5.886;2023-08-12T13:45:20;5.38;;;1.40;;
36799;SDS011;22752;51.960;5.886;2023-08-12T13:47:46;4.20;;;1.40;;
36799;SDS011;22752;51.960;5.886;2023-08-12T13:50:12;4.90;;;1.67;;
36799;SDS011;22752;51.960;5.886;2023-08-12T13:52:38;5.53;;;2.05;;
36799;SDS011;22752;51.960;5.886;2023-08-12T13:55:05;7.38;;;2.03;;
36799;SDS011;22752;51.960;5.886;2023-08-12T13:57:31;5.28;;;1.77;;
36799;SDS011;22752;51.960;5.886;2023-08-12T13:59:56;5.97;;;1.92;;
36799;SDS011;22752;51.960;5.886;2023-08-12T14:02:22;6.82;;;1.80;;
36799;SDS011;22752;51.960;5.886;2023-08-12T14:04:48;6.78;;;2.22;;
36799;SDS011;22752;51.960;5.886;2023-08-12T14:07:14;5.93;;;2.33;;
36799;SDS011;22752;51.960;5.886;2023-08-12T14:09:40;5.55;;;1.90;;
36799;SDS011;22752;51.960;5.886;2023-08-12T14:12:06;8.93;;;2.15;;
36799;SDS011;22752;51.960;5.886;2023-08-12T14:14:32;6.25;;;2.22;;
36799;SDS011;22752;51.960;5.886;2023-08-12T14:16:57;7.78;;;2.15;;
36799;SDS011;22752;51.960;5.886;2023-08-12T14:19:23;6.13;;;2.03;;
36799;SDS011;22752;51.960;5.886;2023-08-12T14:21:49;4.80;;;1.90;;
36799;SDS011;22752;51.960;5.886;2023-08-12T14:24:14;4.75;;;1.85;;
36799;SDS011;22752;51.960;5.886;2023-08-12T14:26:40;7.22;;;2.10;;
36799;SDS011;22752;51.960;5.886;2023-08-12T14:29:06;5.63;;;1.67;;
36799;SDS011;22752;51.960;5.886;2023-08-12T14:31:32;6.63;;;2.13;;
36799;SDS011;22752;51.960;5.886;2023-08-12T14:33:59;9.23;;;2.28;;
36799;SDS011;22752;51.960;5.886;2023-08-12T14:36:26;6.50;;;1.95;;
36799;SDS011;22752;51.960;5.886;2023-08-12T14:38:51;5.65;;;2.00;;
36799;SDS011;22752;51.960;5.886;2023-08-12T14:41:17;5.78;;;2.70;;
36799;SDS011;22752;51.960;5.886;2023-08-12T14:43:43;8.27;;;2.47;;
36799;SDS011;22752;51.960;5.886;2023-08-12T14:46:09;7.40;;;2.30;;
36799;SDS011;22752;51.960;5.886;2023-08-12T14:48:34;8.82;;;2.50;;
36799;SDS011;22752;51.960;5.886;2023-08-12T14:51:00;6.30;;;1.70;;